createdAt,value
2017-11-10T00:00:14.499Z,50.73
2017-11-10T00:02:41.791Z,44.67
2017-11-10T00:05:09.072Z,56.20
2017-11-10T00:07:36.373Z,51.03
2017-11-10T00:10:03.640Z,51.27
2017-11-10T00:12:30.914Z,47.63
2017-11-10T00:14:58.209Z,46.00
2017-11-10T00:17:25.485Z,49.57
2017-11-10T00:19:52.771Z,48.27
2017-11-10T00:22:20.040Z,56.57
2017-11-10T00:24:47.494Z,50.90
2017-11-10T00:27:14.784Z,47.00
2017-11-10T00:29:42.068Z,50.90
2017-11-10T00:32:09.520Z,51.30
2017-11-10T00:34:37.296Z,50.10
2017-11-10T00:37:04.576Z,47.17
2017-11-10T00:39:31.863Z,56.53
2017-11-10T00:41:59.921Z,43.50
2017-11-10T00:44:27.194Z,50.90
2017-11-10T00:46:54.975Z,55.70
2017-11-10T00:49:22.300Z,49.30
2017-11-10T00:51:49.588Z,45.17
2017-11-10T00:54:16.864Z,46.93
2017-11-10T00:56:44.161Z,50.00
2017-11-10T00:59:11.435Z,48.13
2017-11-10T01:01:42.580Z,45.23
2017-11-10T01:04:12.506Z,52.43
2017-11-10T01:06:54.568Z,49.50
2017-11-10T01:09:59.509Z,53.63
2017-11-10T01:12:30.005Z,51.93
2017-11-10T01:15:00.713Z,52.23
2017-11-10T01:17:39.717Z,58.70
2017-11-10T01:20:08.363Z,51.83
2017-11-10T01:22:35.653Z,50.37
2017-11-10T01:25:03.027Z,52.27
2017-11-10T01:27:30.295Z,58.77
2017-11-10T01:29:57.567Z,55.30
2017-11-10T01:32:24.860Z,49.87
2017-11-10T01:34:52.144Z,59.10
2017-11-10T01:37:19.425Z,61.53
2017-11-10T01:39:46.700Z,51.37
2017-11-10T01:42:13.992Z,59.13
2017-11-10T01:44:41.696Z,53.27
2017-11-10T01:47:08.981Z,59.73
2017-11-10T01:49:51.128Z,59.03
2017-11-10T01:52:18.440Z,62.70
2017-11-10T01:54:45.712Z,54.80
2017-11-10T01:57:12.984Z,69.33
2017-11-10T01:59:40.276Z,65.73
2017-11-10T02:02:07.559Z,60.63
2017-11-10T02:04:34.849Z,67.77
2017-11-10T02:07:02.125Z,57.80
2017-11-10T02:09:29.411Z,66.27
2017-11-10T02:11:56.693Z,63.73
2017-11-10T02:14:26.898Z,69.70
2017-11-10T02:16:54.164Z,64.20
2017-11-10T02:19:21.484Z,62.53
2017-11-10T02:21:48.760Z,67.70
2017-11-10T02:24:16.058Z,77.87
2017-11-10T02:26:43.396Z,65.90
2017-11-10T02:29:13.550Z,74.83
2017-11-10T02:31:40.824Z,68.73
2017-11-10T02:34:08.153Z,71.13
2017-11-10T02:36:35.421Z,62.70
2017-11-10T02:39:02.696Z,85.87
2017-11-10T02:41:29.989Z,72.80
2017-11-10T02:43:57.260Z,77.97
2017-11-10T02:46:24.556Z,71.10
2017-11-10T02:48:51.830Z,73.67
2017-11-10T02:51:19.124Z,68.60
2017-11-10T02:53:46.399Z,63.67
2017-11-10T02:56:13.692Z,68.20
2017-11-10T02:58:40.966Z,63.77
2017-11-10T03:01:08.270Z,61.40
2017-11-10T03:03:35.547Z,54.07
2017-11-10T03:06:02.833Z,51.27
2017-11-10T03:08:30.098Z,66.40
2017-11-10T03:10:57.426Z,61.87
2017-11-10T03:13:24.700Z,67.80
2017-11-10T03:15:51.976Z,57.87
2017-11-10T03:18:19.267Z,60.63
2017-11-10T03:20:46.553Z,70.13
2017-11-10T03:23:13.843Z,56.10
2017-11-10T03:25:41.128Z,69.70
2017-11-10T03:28:08.416Z,56.87
2017-11-10T03:30:35.686Z,65.00
2017-11-10T03:33:02.984Z,63.60
2017-11-10T03:35:30.261Z,61.17
2017-11-10T03:37:57.547Z,59.53
2017-11-10T03:40:24.828Z,48.67
2017-11-10T03:42:52.133Z,51.73
2017-11-10T03:45:19.851Z,47.53
2017-11-10T03:47:47.137Z,53.60
2017-11-10T03:50:14.413Z,42.13
2017-11-10T03:52:41.677Z,45.77
2017-11-10T03:55:08.972Z,50.20
2017-11-10T03:57:36.249Z,46.43
2017-11-10T04:00:03.545Z,51.53
2017-11-10T04:02:30.828Z,46.47
2017-11-10T04:04:58.111Z,39.63
2017-11-10T04:07:25.389Z,43.93
2017-11-10T04:09:52.701Z,57.90
2017-11-10T04:12:19.971Z,42.67
2017-11-10T04:14:47.249Z,41.80
2017-11-10T04:17:14.543Z,49.63
2017-11-10T04:19:41.824Z,42.33
2017-11-10T04:22:09.116Z,44.77
2017-11-10T04:24:36.398Z,43.23
2017-11-10T04:27:03.699Z,44.03
2017-11-10T04:29:30.982Z,35.87
2017-11-10T04:31:58.274Z,37.50
2017-11-10T04:34:25.546Z,43.97
2017-11-10T04:36:52.835Z,40.53
2017-11-10T04:39:20.110Z,36.37
2017-11-10T04:41:47.396Z,36.37
2017-11-10T04:44:14.673Z,39.60
2017-11-10T04:46:41.969Z,40.43
2017-11-10T04:49:09.251Z,38.30
2017-11-10T04:51:36.576Z,38.40
2017-11-10T04:54:03.859Z,36.30
2017-11-10T04:56:31.131Z,37.87
2017-11-10T04:58:58.430Z,34.70
2017-11-10T05:01:25.712Z,33.20
2017-11-10T05:03:52.997Z,33.43
2017-11-10T05:08:53.925Z,34.47
2017-11-10T05:11:21.196Z,28.80
2017-11-10T05:13:48.489Z,30.50
2017-11-10T05:16:15.764Z,29.83
2017-11-10T05:18:43.314Z,31.97
2017-11-10T05:21:11.428Z,28.70
2017-11-10T05:23:38.707Z,31.20
2017-11-10T05:26:06.104Z,24.50
2017-11-10T05:28:33.412Z,26.60
2017-11-10T05:31:00.684Z,23.70
2017-11-10T05:33:28.215Z,27.60
2017-11-10T05:35:55.518Z,28.50
2017-11-10T05:38:22.785Z,21.80
2017-11-10T05:40:50.073Z,21.13
2017-11-10T05:43:17.344Z,24.27
2017-11-10T05:45:44.639Z,22.77
2017-11-10T05:48:11.912Z,23.50
2017-11-10T05:50:39.858Z,18.00
2017-11-10T05:55:41.833Z,20.80
2017-11-10T05:58:09.807Z,20.60
2017-11-10T06:00:37.100Z,18.50
2017-11-10T06:03:04.386Z,19.80
2017-11-10T06:05:31.885Z,20.52
2017-11-10T06:07:59.151Z,18.80
2017-11-10T06:10:26.445Z,20.60
2017-11-10T06:12:53.715Z,19.00
2017-11-10T06:15:20.993Z,20.77
2017-11-10T06:17:48.280Z,16.47
2017-11-10T06:20:15.556Z,14.93
2017-11-10T06:22:42.858Z,19.90
2017-11-10T06:25:10.129Z,17.77
2017-11-10T06:27:37.424Z,17.27
2017-11-10T06:30:04.697Z,19.00
2017-11-10T06:32:31.985Z,20.90
2017-11-10T06:34:59.260Z,17.50
2017-11-10T06:37:26.555Z,22.10
2017-11-10T06:39:53.830Z,20.53
2017-11-10T06:42:21.125Z,21.63
2017-11-10T06:44:48.398Z,21.80
2017-11-10T06:47:15.694Z,25.57
2017-11-10T06:49:42.963Z,21.27
2017-11-10T06:52:10.275Z,19.43
2017-11-10T06:54:37.559Z,24.20
2017-11-10T06:57:04.840Z,19.70
2017-11-10T06:59:32.144Z,21.43
2017-11-10T07:01:59.592Z,20.70
2017-11-10T07:04:26.867Z,20.83
2017-11-10T07:06:54.177Z,19.70
2017-11-10T07:09:21.497Z,19.00
2017-11-10T07:11:48.771Z,18.47
2017-11-10T07:14:16.055Z,19.23
2017-11-10T07:16:43.352Z,19.40
2017-11-10T07:19:10.672Z,18.00
2017-11-10T07:21:37.941Z,22.00
2017-11-10T07:24:05.254Z,19.83
2017-11-10T07:26:32.537Z,19.23
2017-11-10T07:28:59.804Z,21.33
2017-11-10T07:31:27.118Z,21.57
2017-11-10T07:33:54.457Z,26.40
2017-11-10T07:36:21.727Z,20.10
2017-11-10T07:38:49.006Z,28.47
2017-11-10T07:41:16.300Z,26.40
2017-11-10T07:43:43.577Z,36.23
2017-11-10T07:46:10.870Z,34.37
2017-11-10T07:48:38.144Z,43.37
2017-11-10T07:51:05.452Z,45.03
2017-11-10T07:53:32.727Z,48.77
2017-11-10T07:56:01.153Z,34.63
2017-11-10T07:58:28.434Z,38.73
2017-11-10T08:00:55.715Z,37.30
2017-11-10T08:03:23.023Z,34.83
2017-11-10T08:05:50.684Z,33.63
2017-11-10T08:08:18.486Z,37.73
2017-11-10T08:10:45.760Z,35.83
2017-11-10T08:13:13.062Z,28.93
2017-11-10T08:15:40.374Z,31.67
2017-11-10T08:18:07.643Z,26.60
2017-11-10T08:20:34.913Z,33.13
2017-11-10T08:23:02.219Z,25.70
2017-11-10T08:25:29.488Z,28.20
2017-11-10T08:27:56.794Z,27.73
2017-11-10T08:30:24.069Z,31.37
2017-11-10T08:32:51.375Z,26.70
2017-11-10T08:35:18.648Z,29.40
2017-11-10T08:37:45.920Z,22.93
2017-11-10T08:40:13.216Z,28.33
2017-11-10T08:42:40.489Z,22.97
2017-11-10T08:45:07.796Z,21.50
2017-11-10T08:47:35.103Z,22.33
2017-11-10T08:50:02.376Z,25.00
2017-11-10T08:52:29.692Z,24.07
2017-11-10T08:54:56.988Z,21.43
2017-11-10T08:57:24.261Z,25.33
2017-11-10T08:59:51.562Z,23.67
2017-11-10T09:02:18.837Z,19.47
2017-11-10T09:04:46.138Z,23.47
2017-11-10T09:07:13.409Z,30.13
2017-11-10T09:09:40.713Z,26.53
2017-11-10T09:12:07.984Z,21.97
2017-11-10T09:14:35.291Z,19.20
2017-11-10T09:17:02.588Z,18.00
2017-11-10T09:19:29.861Z,23.80
2017-11-10T09:21:57.175Z,19.00
2017-11-10T09:24:24.480Z,20.70
2017-11-10T09:26:51.753Z,19.10
2017-11-10T09:29:22.816Z,19.37
2017-11-10T09:32:08.704Z,17.23
2017-11-10T09:34:36.480Z,18.30
2017-11-10T09:37:09.515Z,19.67
2017-11-10T09:39:52.462Z,16.60
2017-11-10T09:42:22.392Z,20.30
2017-11-10T09:44:50.583Z,19.13
2017-11-10T09:47:31.616Z,14.80
2017-11-10T09:50:14.832Z,14.60
2017-11-10T09:52:57.917Z,16.00
2017-11-10T09:55:30.797Z,17.87
2017-11-10T09:58:03.997Z,14.83
2017-11-10T10:00:31.268Z,14.97
2017-11-10T10:03:13.465Z,20.30
2017-11-10T10:05:44.296Z,20.70
2017-11-10T10:08:12.394Z,23.80
2017-11-10T10:10:41.483Z,18.23
2017-11-10T10:13:14.461Z,17.30
2017-11-10T10:15:47.548Z,22.10
2017-11-10T10:18:14.822Z,20.17
2017-11-10T10:20:47.899Z,18.73
2017-11-10T10:23:15.198Z,18.60
2017-11-10T10:25:42.468Z,18.93
2017-11-10T10:28:09.773Z,15.07
2017-11-10T10:30:37.036Z,17.43
2017-11-10T10:33:04.336Z,15.63
2017-11-10T10:35:31.608Z,17.77
2017-11-10T10:37:58.916Z,16.10
2017-11-10T10:40:26.191Z,16.20
2017-11-10T10:42:53.483Z,13.70
2017-11-10T10:45:20.796Z,10.43
2017-11-10T10:47:48.057Z,11.33
2017-11-10T10:50:15.339Z,12.67
2017-11-10T10:52:42.631Z,9.70
2017-11-10T10:55:09.888Z,9.90
2017-11-10T10:57:37.183Z,11.87
2017-11-10T11:00:04.555Z,8.57
2017-11-10T11:02:31.813Z,8.93
2017-11-10T11:04:59.107Z,10.37
2017-11-10T11:07:26.366Z,9.00
2017-11-10T11:09:53.669Z,12.60
2017-11-10T11:12:20.935Z,9.97
2017-11-10T11:14:48.209Z,12.97
2017-11-10T11:17:15.492Z,9.73
2017-11-10T11:19:42.752Z,10.40
2017-11-10T11:22:10.058Z,9.97
2017-11-10T11:24:37.363Z,9.60
2017-11-10T11:27:04.621Z,11.40
2017-11-10T11:29:31.908Z,13.60
2017-11-10T11:31:59.189Z,9.97
2017-11-10T11:34:26.449Z,11.20
2017-11-10T11:36:53.746Z,10.37
2017-11-10T11:39:21.014Z,10.83
2017-11-10T11:41:48.680Z,7.97
2017-11-10T11:44:15.940Z,9.40
2017-11-10T11:46:43.206Z,11.10
2017-11-10T11:49:10.503Z,8.80
2017-11-10T11:51:37.762Z,7.30
2017-11-10T11:54:05.032Z,8.43
2017-11-10T11:56:32.317Z,7.50
2017-11-10T11:58:59.619Z,6.83
2017-11-10T12:01:26.897Z,7.07
2017-11-10T12:03:54.149Z,9.07
2017-11-10T12:06:21.445Z,8.07
2017-11-10T12:08:48.708Z,8.93
2017-11-10T12:11:15.967Z,8.50
2017-11-10T12:13:43.252Z,8.10
2017-11-10T12:16:10.548Z,6.63
2017-11-10T12:18:37.831Z,7.07
2017-11-10T12:21:05.140Z,5.10
2017-11-10T12:23:32.415Z,5.60
2017-11-10T12:25:59.709Z,7.37
2017-11-10T12:28:26.968Z,5.87
2017-11-10T12:30:54.266Z,6.93
2017-11-10T12:33:21.558Z,6.80
2017-11-10T12:35:48.836Z,5.97
2017-11-10T12:38:16.128Z,6.03
2017-11-10T12:40:43.389Z,8.50
2017-11-10T12:43:10.672Z,8.07
2017-11-10T12:45:37.940Z,5.60
2017-11-10T12:48:05.233Z,7.00
2017-11-10T12:50:32.492Z,6.43
2017-11-10T12:52:59.788Z,10.40
2017-11-10T12:55:27.056Z,8.47
2017-11-10T12:57:54.341Z,7.63
2017-11-10T13:00:21.630Z,7.60
2017-11-10T13:02:48.891Z,5.87
2017-11-10T13:05:17.074Z,6.80
2017-11-10T13:07:44.332Z,8.30
2017-11-10T13:10:11.593Z,5.33
2017-11-10T13:12:38.876Z,7.07
2017-11-10T13:15:06.166Z,6.37
2017-11-10T13:17:33.448Z,5.50
2017-11-10T13:20:00.703Z,6.07
2017-11-10T13:22:28.005Z,5.00
2017-11-10T13:24:55.267Z,4.73
2017-11-10T13:27:22.528Z,4.13
2017-11-10T13:29:49.823Z,5.57
2017-11-10T13:32:17.080Z,5.13
2017-11-10T13:34:44.392Z,4.87
2017-11-10T13:37:11.649Z,4.93
2017-11-10T13:39:38.912Z,4.90
2017-11-10T13:42:06.203Z,6.17
2017-11-10T13:44:33.488Z,5.67
2017-11-10T13:47:00.778Z,6.90
2017-11-10T13:49:28.042Z,6.27
2017-11-10T13:51:55.324Z,5.63
2017-11-10T13:54:22.612Z,5.50
2017-11-10T13:56:49.876Z,5.33
2017-11-10T13:59:17.154Z,5.10
2017-11-10T14:01:44.435Z,6.10
2017-11-10T14:04:11.752Z,9.97
2017-11-10T14:06:39.017Z,4.97
2017-11-10T14:09:06.268Z,7.30
2017-11-10T14:11:33.552Z,5.60
2017-11-10T14:14:00.812Z,6.50
2017-11-10T14:16:28.097Z,5.50
2017-11-10T14:18:55.380Z,4.87
2017-11-10T14:21:22.673Z,4.27
2017-11-10T14:23:49.933Z,5.40
2017-11-10T14:26:17.187Z,3.30
2017-11-10T14:28:44.488Z,3.83
2017-11-10T14:31:11.749Z,3.03
2017-11-10T14:33:39.008Z,2.80
2017-11-10T14:36:06.312Z,3.70
2017-11-10T14:38:33.690Z,2.90
2017-11-10T14:41:00.938Z,3.50
2017-11-10T14:43:28.237Z,3.00
2017-11-10T14:45:55.515Z,3.03
2017-11-10T14:48:22.759Z,2.80
2017-11-10T14:50:50.040Z,3.17
2017-11-10T14:55:51.040Z,2.67
2017-11-10T14:58:18.345Z,2.70
2017-11-10T15:00:45.605Z,2.40
2017-11-10T15:03:12.865Z,2.70
2017-11-10T15:05:40.164Z,2.03
2017-11-10T15:08:08.815Z,2.47
2017-11-10T15:10:38.179Z,2.87
2017-11-10T15:13:11.903Z,2.20
2017-11-10T15:15:49.537Z,1.57
2017-11-10T15:18:21.091Z,2.07
2017-11-10T15:20:49.531Z,1.60
2017-11-10T15:23:17.196Z,1.60
2017-11-10T15:25:44.752Z,2.20
2017-11-10T15:28:12.340Z,1.53
2017-11-10T15:30:39.896Z,1.53
2017-11-10T15:33:07.161Z,1.60
2017-11-10T15:35:34.424Z,1.70
2017-11-10T15:38:01.750Z,2.40
2017-11-10T15:40:30.192Z,1.50
2017-11-10T15:42:57.700Z,2.80
2017-11-10T15:45:24.996Z,3.53
2017-11-10T15:47:52.297Z,1.57
2017-11-10T15:50:19.561Z,1.53
2017-11-10T15:52:46.840Z,1.43
2017-11-10T15:55:14.124Z,1.90
2017-11-10T15:57:41.428Z,2.97
2017-11-10T16:00:08.688Z,1.57
2017-11-10T16:02:35.948Z,1.97
2017-11-10T16:05:03.245Z,1.93
2017-11-10T16:07:30.535Z,1.40
2017-11-10T16:09:57.817Z,1.67
2017-11-10T16:12:25.106Z,2.70
2017-11-10T16:14:52.369Z,2.00
2017-11-10T16:17:19.668Z,2.07
2017-11-10T16:19:46.960Z,7.30
2017-11-10T16:22:14.244Z,1.60
2017-11-10T16:24:41.532Z,1.80
2017-11-10T16:27:08.801Z,1.37
2017-11-10T16:29:36.102Z,2.00
2017-11-10T16:32:03.352Z,2.13
2017-11-10T16:34:30.617Z,2.10
2017-11-10T16:36:57.911Z,2.07
2017-11-10T16:39:25.201Z,2.07
2017-11-10T16:41:52.431Z,2.20
2017-11-10T16:44:19.716Z,2.53
2017-11-10T16:46:46.988Z,2.60
2017-11-10T16:49:14.274Z,3.83
2017-11-10T16:51:41.536Z,2.60
2017-11-10T16:54:08.821Z,2.40
2017-11-10T16:56:36.084Z,4.10
2017-11-10T16:59:03.386Z,3.47
2017-11-10T17:01:30.636Z,2.80
2017-11-10T17:03:57.900Z,2.43
2017-11-10T17:06:25.189Z,3.60
2017-11-10T17:08:52.480Z,3.77
2017-11-10T17:11:19.737Z,5.07
2017-11-10T17:13:47.024Z,5.20
2017-11-10T17:16:14.288Z,3.37
2017-11-10T17:18:41.581Z,4.13
2017-11-10T17:21:08.850Z,4.80
2017-11-10T17:23:36.144Z,5.30
2017-11-10T17:26:03.512Z,5.10
2017-11-10T17:28:30.778Z,3.80
2017-11-10T17:30:58.093Z,10.00
2017-11-10T17:33:25.356Z,5.12
2017-11-10T17:35:52.631Z,4.53
2017-11-10T17:38:19.933Z,3.90
2017-11-10T17:40:47.192Z,5.50
2017-11-10T17:43:14.492Z,9.73
2017-11-10T17:45:41.752Z,10.10
2017-11-10T17:48:09.057Z,6.20
2017-11-10T17:50:36.321Z,8.23
2017-11-10T17:53:03.585Z,11.20
2017-11-10T17:55:30.880Z,11.73
2017-11-10T17:57:58.143Z,6.30
2017-11-10T18:00:25.888Z,9.17
2017-11-10T18:02:53.145Z,10.20
2017-11-10T18:05:20.405Z,9.50
2017-11-10T18:07:47.709Z,10.03
2017-11-10T18:10:14.977Z,11.53
2017-11-10T18:12:42.277Z,11.57
2017-11-10T18:15:09.541Z,8.53
2017-11-10T18:17:36.831Z,12.23
2017-11-10T18:20:04.100Z,11.03
2017-11-10T18:22:31.408Z,11.37
2017-11-10T18:24:58.712Z,12.67
2017-11-10T18:27:26.188Z,9.07
2017-11-10T18:29:53.461Z,9.80
2017-11-10T18:32:20.761Z,12.17
2017-11-10T18:34:48.066Z,11.90
2017-11-10T18:37:15.360Z,10.07
2017-11-10T18:39:42.620Z,11.90
2017-11-10T18:42:09.893Z,13.70
2017-11-10T18:44:37.193Z,12.87
2017-11-10T18:47:04.461Z,13.00
2017-11-10T18:49:31.761Z,11.47
2017-11-10T18:51:59.283Z,11.77
2017-11-10T18:54:27.451Z,9.23
2017-11-10T18:57:17.470Z,13.23
2017-11-10T18:59:51.279Z,9.87
2017-11-10T19:02:32.899Z,18.63
2017-11-10T19:05:00.165Z,15.60
2017-11-10T19:07:27.432Z,15.43
2017-11-10T19:09:54.723Z,13.03
2017-11-10T19:12:21.993Z,10.70
2017-11-10T19:14:49.293Z,13.97
2017-11-10T19:17:16.557Z,9.73
2017-11-10T19:19:43.860Z,14.87
2017-11-10T19:22:11.166Z,15.27
2017-11-10T19:24:38.430Z,14.47
2017-11-10T19:27:05.688Z,10.37
2017-11-10T19:29:32.982Z,15.93
2017-11-10T19:32:00.271Z,15.60
2017-11-10T19:34:27.570Z,23.93
2017-11-10T19:36:54.841Z,20.23
2017-11-10T19:39:22.141Z,11.13
2017-11-10T19:41:49.404Z,14.63
2017-11-10T19:44:16.873Z,16.10
2017-11-10T19:46:44.149Z,17.70
2017-11-10T19:49:11.440Z,8.43
2017-11-10T19:51:38.720Z,11.70
2017-11-10T19:54:06.022Z,16.37
2017-11-10T19:56:33.288Z,17.37
2017-11-10T19:59:00.565Z,15.87
2017-11-10T20:01:27.873Z,18.40
2017-11-10T20:03:55.143Z,15.70
2017-11-10T20:06:22.409Z,13.53
2017-11-10T20:08:49.700Z,15.77
2017-11-10T20:11:16.971Z,16.50
2017-11-10T20:13:44.265Z,14.23
2017-11-10T20:16:11.538Z,15.47
2017-11-10T20:18:38.836Z,12.20
2017-11-10T20:21:06.432Z,10.57
2017-11-10T20:23:33.710Z,8.27
2017-11-10T20:26:01.013Z,10.00
2017-11-10T20:28:28.281Z,10.03
2017-11-10T20:30:55.551Z,16.10
2017-11-10T20:33:22.852Z,21.60
2017-11-10T20:35:50.119Z,12.80
2017-11-10T20:38:17.393Z,14.63
2017-11-10T20:40:44.677Z,17.87
2017-11-10T20:43:11.986Z,16.00
2017-11-10T20:45:39.581Z,15.27
2017-11-10T20:48:06.960Z,12.07
2017-11-10T20:50:34.257Z,13.47
2017-11-10T20:53:01.523Z,18.30
2017-11-10T20:55:28.821Z,17.70
2017-11-10T20:57:56.089Z,19.27
2017-11-10T21:00:23.372Z,13.00
2017-11-10T21:02:50.861Z,21.70
2017-11-10T21:05:18.104Z,25.47
2017-11-10T21:07:45.406Z,15.83
2017-11-10T21:10:12.688Z,15.10
2017-11-10T21:12:39.966Z,16.10
2017-11-10T21:15:07.400Z,15.13
2017-11-10T21:17:34.697Z,25.57
2017-11-10T21:20:01.962Z,18.90
2017-11-10T21:22:29.263Z,15.70
2017-11-10T21:24:56.536Z,17.40
2017-11-10T21:27:23.804Z,13.43
2017-11-10T21:29:51.097Z,12.30
2017-11-10T21:32:18.364Z,14.80
2017-11-10T21:34:45.656Z,13.40
2017-11-10T21:37:12.953Z,14.77
2017-11-10T21:39:41.433Z,15.93
2017-11-10T21:42:08.716Z,16.60
2017-11-10T21:44:35.989Z,13.33
2017-11-10T21:47:03.285Z,9.33
2017-11-10T21:49:30.879Z,19.20
2017-11-10T21:51:59.251Z,9.73
2017-11-10T21:54:27.315Z,18.83
2017-11-10T21:56:55.233Z,12.60
2017-11-10T21:59:22.872Z,9.73
2017-11-10T22:01:50.132Z,13.63
2017-11-10T22:04:17.425Z,18.17
2017-11-10T22:06:45.794Z,16.70
2017-11-10T22:09:14.579Z,16.90
2017-11-10T22:11:43.138Z,18.50
2017-11-10T22:14:10.791Z,19.70
2017-11-10T22:16:38.072Z,11.10
2017-11-10T22:19:05.342Z,23.23
2017-11-10T22:21:32.644Z,19.50
2017-11-10T22:23:59.909Z,15.00
2017-11-10T22:26:27.177Z,15.93
2017-11-10T22:28:54.463Z,8.83
2017-11-10T22:31:21.733Z,14.63
2017-11-10T22:33:49.021Z,16.60
2017-11-10T22:36:16.288Z,14.57
2017-11-10T22:38:43.708Z,15.27
2017-11-10T22:41:10.982Z,10.80
2017-11-10T22:43:38.255Z,12.20
2017-11-10T22:46:05.520Z,12.70
2017-11-10T22:48:32.799Z,11.63
2017-11-10T22:51:00.077Z,17.77
2017-11-10T22:53:27.364Z,15.97
2017-11-10T22:55:54.636Z,12.73
2017-11-10T22:58:21.924Z,13.57
2017-11-10T23:00:49.189Z,17.40
2017-11-10T23:03:16.493Z,12.53
2017-11-10T23:05:43.766Z,17.40
2017-11-10T23:08:11.176Z,13.40
2017-11-10T23:10:38.508Z,10.53
2017-11-10T23:13:05.776Z,18.87
2017-11-10T23:15:33.057Z,12.07
2017-11-10T23:18:00.317Z,8.43
2017-11-10T23:20:27.609Z,12.30
2017-11-10T23:22:54.865Z,15.07
2017-11-10T23:25:22.166Z,12.63
2017-11-10T23:27:49.421Z,14.93
2017-11-10T23:30:16.710Z,15.90
2017-11-10T23:32:43.985Z,18.00
2017-11-10T23:35:11.251Z,9.03
2017-11-10T23:37:38.527Z,18.13
2017-11-10T23:40:05.823Z,14.50
2017-11-10T23:42:33.103Z,13.80
2017-11-10T23:45:00.405Z,19.23
2017-11-10T23:47:27.668Z,15.73
2017-11-10T23:49:54.981Z,6.50
2017-11-10T23:52:22.243Z,16.93
2017-11-10T23:54:49.507Z,17.70
2017-11-10T23:57:16.792Z,19.40
2017-11-10T23:59:44.069Z,19.93
